createdAt,value
2018-05-09T00:00:06.853Z,96.20
2018-05-09T00:02:34.330Z,96.40
2018-05-09T00:05:01.859Z,96.40
2018-05-09T00:07:29.377Z,96.80
2018-05-09T00:09:56.864Z,97.10
2018-05-09T00:12:24.346Z,97.20
2018-05-09T00:14:51.867Z,97.30
2018-05-09T00:17:19.354Z,97.40
2018-05-09T00:19:56.450Z,97.60
2018-05-09T00:25:03.430Z,97.80
2018-05-09T00:27:31.659Z,98.20
2018-05-09T00:29:59.371Z,98.20
2018-05-09T00:32:28.686Z,98.40
2018-05-09T00:35:04.570Z,98.40
2018-05-09T00:37:32.098Z,98.60
2018-05-09T00:39:59.591Z,98.70
2018-05-09T00:42:27.179Z,98.70
2018-05-09T00:44:54.681Z,98.90
2018-05-09T00:47:22.190Z,99.10
2018-05-09T00:49:50.699Z,99.20
2018-05-09T00:52:20.620Z,99.50
2018-05-09T00:54:48.951Z,99.40
2018-05-09T00:57:16.453Z,99.40
2018-05-09T00:59:43.943Z,99.50
2018-05-09T01:02:11.430Z,99.70
2018-05-09T01:04:38.912Z,99.60
2018-05-09T01:07:07.176Z,99.90
2018-05-09T01:09:34.755Z,99.90
2018-05-09T01:12:03.116Z,99.90
2018-05-09T01:14:30.619Z,99.90
2018-05-09T01:16:58.083Z,99.90
2018-05-09T01:19:25.641Z,99.90
2018-05-09T01:21:53.115Z,99.90
2018-05-09T01:24:20.665Z,99.90
2018-05-09T01:26:48.172Z,99.90
2018-05-09T01:29:16.412Z,99.90
2018-05-09T01:31:43.901Z,99.90
2018-05-09T01:34:11.365Z,99.90
2018-05-09T01:36:39.613Z,99.90
2018-05-09T01:39:07.070Z,99.90
2018-05-09T01:41:34.573Z,99.90
2018-05-09T01:44:02.829Z,99.90
2018-05-09T01:46:31.100Z,99.90
2018-05-09T01:48:58.590Z,99.90
2018-05-09T01:51:26.078Z,99.90
2018-05-09T01:53:53.540Z,99.90
2018-05-09T01:56:21.042Z,99.90
2018-05-09T01:58:49.361Z,99.90
2018-05-09T02:01:16.969Z,99.90
2018-05-09T02:03:44.445Z,99.90
2018-05-09T02:06:12.008Z,99.90
2018-05-09T02:08:39.657Z,99.90
2018-05-09T02:11:07.182Z,99.90
2018-05-09T02:13:34.721Z,99.90
2018-05-09T02:16:02.203Z,99.90
2018-05-09T02:18:29.689Z,99.90
2018-05-09T02:20:57.937Z,99.90
2018-05-09T02:23:25.625Z,99.90
2018-05-09T02:25:53.132Z,99.90
2018-05-09T02:28:20.642Z,99.90
2018-05-09T02:30:48.109Z,99.90
2018-05-09T02:33:15.598Z,99.90
2018-05-09T02:35:43.087Z,99.90
2018-05-09T02:38:10.548Z,99.90
2018-05-09T02:40:38.031Z,99.90
2018-05-09T02:43:05.482Z,99.90
2018-05-09T02:45:32.944Z,99.90
2018-05-09T02:48:01.210Z,99.90
2018-05-09T02:50:29.462Z,99.90
2018-05-09T02:52:56.961Z,99.90
2018-05-09T02:55:24.495Z,99.90
2018-05-09T02:57:51.961Z,99.90
2018-05-09T03:00:19.441Z,99.90
2018-05-09T03:02:46.922Z,99.90
2018-05-09T03:05:14.449Z,99.90
2018-05-09T03:07:41.937Z,99.90
2018-05-09T03:10:09.426Z,99.90
2018-05-09T03:12:36.937Z,99.90
2018-05-09T03:15:04.426Z,99.90
2018-05-09T03:17:31.916Z,99.90
2018-05-09T03:19:59.389Z,99.90
2018-05-09T03:22:26.853Z,99.90
2018-05-09T03:24:54.350Z,99.90
2018-05-09T03:27:21.845Z,99.90
2018-05-09T03:29:49.397Z,99.90
2018-05-09T03:32:17.581Z,99.90
2018-05-09T03:34:45.045Z,99.90
2018-05-09T03:37:12.519Z,99.90
2018-05-09T03:39:39.972Z,99.90
2018-05-09T03:42:07.453Z,99.90
2018-05-09T03:44:34.929Z,99.90
2018-05-09T03:47:02.449Z,99.90
2018-05-09T03:49:29.903Z,99.90
2018-05-09T03:51:57.412Z,99.90
2018-05-09T03:54:24.832Z,99.90
2018-05-09T03:56:52.301Z,99.90
2018-05-09T03:59:19.777Z,99.90
2018-05-09T04:01:58.918Z,99.90
2018-05-09T04:04:38.122Z,99.90
2018-05-09T04:07:17.382Z,99.90
2018-05-09T04:10:00.609Z,99.90
2018-05-09T04:12:28.081Z,99.90
2018-05-09T04:14:55.620Z,99.90
2018-05-09T04:17:24.309Z,99.90
2018-05-09T04:19:51.781Z,99.90
2018-05-09T04:22:19.244Z,99.90
2018-05-09T04:27:38.104Z,99.90
2018-05-09T04:30:05.989Z,99.90
2018-05-09T04:32:34.268Z,99.90
2018-05-09T04:35:02.510Z,99.90
2018-05-09T04:37:30.003Z,99.90
2018-05-09T04:39:58.247Z,99.90
2018-05-09T04:42:25.748Z,99.90
2018-05-09T04:44:54.016Z,99.90
2018-05-09T04:47:21.524Z,99.90
2018-05-09T04:49:49.009Z,99.90
2018-05-09T04:52:16.509Z,99.90
2018-05-09T04:54:43.979Z,99.90
2018-05-09T04:57:11.436Z,99.90
2018-05-09T04:59:38.938Z,99.90
2018-05-09T05:02:06.415Z,99.90
2018-05-09T05:04:34.648Z,99.90
2018-05-09T05:07:02.145Z,99.90
2018-05-09T05:09:30.552Z,99.90
2018-05-09T05:11:58.014Z,99.90
2018-05-09T05:14:25.488Z,99.90
2018-05-09T05:16:52.950Z,99.90
2018-05-09T05:19:20.454Z,99.90
2018-05-09T05:21:47.914Z,99.90
2018-05-09T05:24:16.127Z,99.90
2018-05-09T05:26:43.594Z,99.90
2018-05-09T05:29:11.049Z,99.90
2018-05-09T05:31:38.509Z,99.90
2018-05-09T05:34:05.965Z,99.90
2018-05-09T05:36:33.443Z,99.90
2018-05-09T05:39:00.894Z,99.90
2018-05-09T05:41:28.367Z,99.90
2018-05-09T05:43:55.836Z,99.90
2018-05-09T05:46:24.036Z,99.90
2018-05-09T05:48:51.485Z,99.90
2018-05-09T05:51:18.979Z,99.90
2018-05-09T05:53:46.427Z,99.90
2018-05-09T05:56:13.990Z,99.90
2018-05-09T05:58:41.515Z,99.90
2018-05-09T06:01:08.975Z,99.90
2018-05-09T06:03:36.448Z,99.90
2018-05-09T06:06:03.897Z,99.90
2018-05-09T06:08:31.367Z,99.90
2018-05-09T06:10:58.826Z,99.90
2018-05-09T06:13:26.295Z,99.90
2018-05-09T06:15:54.928Z,99.90
2018-05-09T06:18:22.844Z,99.50
2018-05-09T06:20:50.312Z,99.20
2018-05-09T06:23:17.814Z,99.10
2018-05-09T06:25:45.332Z,98.70
2018-05-09T06:28:12.811Z,98.40
2018-05-09T06:30:40.277Z,98.20
2018-05-09T06:33:07.804Z,98.10
2018-05-09T06:35:35.273Z,98.00
2018-05-09T06:38:02.752Z,98.10
2018-05-09T06:40:31.041Z,98.00
2018-05-09T06:42:58.543Z,97.80
2018-05-09T06:45:25.993Z,97.80
2018-05-09T06:47:53.456Z,97.70
2018-05-09T06:50:20.920Z,97.60
2018-05-09T06:52:48.417Z,97.30
2018-05-09T06:55:15.884Z,97.10
2018-05-09T06:57:43.344Z,96.80
2018-05-09T07:00:10.796Z,96.70
2018-05-09T07:02:38.292Z,96.70
2018-05-09T07:05:05.794Z,96.20
2018-05-09T07:07:34.042Z,96.20
2018-05-09T07:10:01.523Z,96.20
2018-05-09T07:12:29.051Z,96.00
2018-05-09T07:14:56.451Z,96.30
2018-05-09T07:17:23.905Z,96.10
2018-05-09T07:19:52.126Z,95.20
2018-05-09T07:22:19.644Z,95.20
2018-05-09T07:24:47.102Z,95.20
2018-05-09T07:27:15.316Z,95.20
2018-05-09T07:29:42.770Z,95.20
2018-05-09T07:32:10.216Z,95.20
2018-05-09T07:34:37.682Z,95.10
2018-05-09T07:37:05.166Z,94.70
2018-05-09T07:39:32.631Z,94.60
2018-05-09T07:42:00.102Z,94.90
2018-05-09T07:44:27.563Z,94.60
2018-05-09T07:46:55.785Z,93.90
2018-05-09T07:49:23.255Z,93.90
2018-05-09T07:51:50.717Z,94.00
2018-05-09T07:54:18.181Z,93.80
2018-05-09T07:56:45.662Z,93.70
2018-05-09T07:59:13.104Z,93.80
2018-05-09T08:01:40.559Z,93.60
2018-05-09T08:04:08.013Z,93.20
2018-05-09T08:06:35.494Z,93.50
2018-05-09T08:09:03.726Z,93.20
2018-05-09T08:11:31.179Z,93.20
2018-05-09T08:13:58.640Z,93.10
2018-05-09T08:16:26.084Z,92.90
2018-05-09T08:18:53.541Z,93.20
2018-05-09T08:21:21.012Z,92.70
2018-05-09T08:23:48.487Z,92.50
2018-05-09T08:26:15.946Z,92.90
2018-05-09T08:28:43.398Z,92.60
2018-05-09T08:31:10.855Z,92.60
2018-05-09T08:33:38.304Z,92.30
2018-05-09T08:36:05.802Z,91.80
2018-05-09T08:38:33.270Z,92.00
2018-05-09T08:41:00.770Z,92.00
2018-05-09T08:43:28.252Z,92.30
2018-05-09T08:45:55.696Z,92.20
2018-05-09T08:48:23.150Z,92.00
2018-05-09T08:50:50.604Z,91.80
2018-05-09T08:53:18.093Z,92.00
2018-05-09T08:55:46.320Z,92.00
2018-05-09T08:58:13.793Z,92.00
2018-05-09T09:00:41.263Z,91.50
2018-05-09T09:03:08.721Z,91.50
2018-05-09T09:05:36.184Z,91.60
2018-05-09T09:08:03.651Z,91.40
2018-05-09T09:10:31.912Z,91.30
2018-05-09T09:12:59.365Z,91.20
2018-05-09T09:15:28.136Z,91.40
2018-05-09T09:17:55.574Z,91.10
2018-05-09T09:20:23.025Z,91.00
2018-05-09T09:22:50.492Z,90.50
2018-05-09T09:25:17.965Z,90.90
2018-05-09T09:27:45.432Z,90.40
2018-05-09T09:30:12.912Z,90.40
2018-05-09T09:32:40.386Z,90.00
2018-05-09T09:35:07.850Z,90.10
2018-05-09T09:37:35.325Z,90.20
2018-05-09T09:40:02.797Z,89.20
2018-05-09T09:42:30.266Z,88.00
2018-05-09T09:44:57.704Z,89.00
2018-05-09T09:47:25.187Z,88.30
2018-05-09T09:49:52.648Z,87.70
2018-05-09T09:52:20.121Z,87.10
2018-05-09T09:54:47.653Z,87.10
2018-05-09T09:57:15.095Z,86.40
2018-05-09T09:59:42.614Z,87.70
2018-05-09T10:02:10.099Z,87.80
2018-05-09T10:04:37.594Z,86.00
2018-05-09T10:07:05.039Z,85.90
2018-05-09T10:09:32.502Z,84.90
2018-05-09T10:11:59.969Z,85.10
2018-05-09T10:14:27.443Z,85.30
2018-05-09T10:16:54.909Z,84.90
2018-05-09T10:19:22.361Z,83.70
2018-05-09T10:21:49.827Z,84.30
2018-05-09T10:24:18.049Z,81.80
2018-05-09T10:26:45.502Z,81.80
2018-05-09T10:29:12.965Z,83.30
2018-05-09T10:31:40.422Z,82.10
2018-05-09T10:34:07.905Z,82.80
2018-05-09T10:36:35.361Z,82.90
2018-05-09T10:39:02.816Z,83.10
2018-05-09T10:41:30.287Z,81.30
2018-05-09T10:43:58.523Z,80.70
2018-05-09T10:46:26.002Z,80.60
2018-05-09T10:48:53.463Z,80.60
2018-05-09T10:51:20.924Z,82.00
2018-05-09T10:53:48.385Z,82.20
2018-05-09T10:56:15.847Z,81.70
2018-05-09T10:58:44.074Z,80.60
2018-05-09T11:01:11.534Z,80.50
2018-05-09T11:03:38.998Z,80.80
2018-05-09T11:06:06.460Z,81.70
2018-05-09T11:08:33.944Z,80.30
2018-05-09T11:11:01.399Z,80.30
2018-05-09T11:13:28.873Z,80.50
2018-05-09T11:15:56.376Z,79.70
2018-05-09T11:18:23.837Z,80.40
2018-05-09T11:20:51.283Z,81.40
2018-05-09T11:23:18.739Z,81.20
2018-05-09T11:25:46.262Z,79.20
2018-05-09T11:28:14.472Z,79.60
2018-05-09T11:30:41.924Z,79.50
2018-05-09T11:33:10.203Z,78.50
2018-05-09T11:35:37.653Z,78.60
2018-05-09T11:38:05.150Z,79.00
2018-05-09T11:40:32.601Z,78.10
2018-05-09T11:43:00.066Z,77.50
2018-05-09T11:45:27.538Z,78.90
2018-05-09T11:47:55.021Z,77.80
2018-05-09T11:50:22.476Z,78.60
2018-05-09T11:52:49.921Z,78.40
2018-05-09T11:55:18.166Z,77.40
2018-05-09T11:57:45.621Z,77.30
2018-05-09T12:00:13.073Z,78.00
2018-05-09T12:02:40.608Z,78.00
2018-05-09T12:05:07.964Z,78.20
2018-05-09T12:07:35.461Z,78.00
2018-05-09T12:10:02.921Z,78.30
2018-05-09T12:12:30.380Z,78.60
2018-05-09T12:14:57.887Z,77.80
2018-05-09T12:17:25.370Z,77.10
2018-05-09T12:19:52.841Z,77.70
2018-05-09T12:22:20.292Z,77.00
2018-05-09T12:24:47.760Z,76.80
2018-05-09T12:27:15.228Z,76.50
2018-05-09T12:29:43.469Z,78.20
2018-05-09T12:32:10.930Z,78.10
2018-05-09T12:34:38.401Z,77.20
2018-05-09T12:37:05.873Z,77.70
2018-05-09T12:39:34.179Z,76.50
2018-05-09T12:42:01.628Z,76.40
2018-05-09T12:44:29.089Z,76.90
2018-05-09T12:46:56.537Z,77.20
2018-05-09T12:49:23.996Z,76.90
2018-05-09T12:51:51.498Z,74.60
2018-05-09T12:54:18.960Z,76.00
2018-05-09T12:56:46.405Z,75.00
2018-05-09T12:59:13.869Z,75.30
2018-05-09T13:01:41.336Z,75.30
2018-05-09T13:04:09.289Z,73.50
2018-05-09T13:06:36.746Z,74.00
2018-05-09T13:09:04.197Z,74.30
2018-05-09T13:11:31.666Z,74.40
2018-05-09T13:13:59.299Z,73.20
2018-05-09T13:16:26.801Z,73.90
2018-05-09T13:18:54.263Z,74.30
2018-05-09T13:21:21.732Z,74.80
2018-05-09T13:23:49.193Z,73.90
2018-05-09T13:26:17.647Z,73.60
2018-05-09T13:28:45.256Z,73.60
2018-05-09T13:31:12.753Z,74.10
2018-05-09T13:33:40.218Z,73.90
2018-05-09T13:36:07.676Z,73.90
2018-05-09T13:38:35.255Z,73.10
2018-05-09T13:41:02.712Z,72.50
2018-05-09T13:43:30.180Z,72.30
2018-05-09T13:45:58.625Z,73.00
2018-05-09T13:48:25.999Z,73.00
2018-05-09T13:50:53.471Z,72.00
2018-05-09T13:53:21.705Z,72.00
2018-05-09T13:55:49.161Z,72.00
2018-05-09T13:58:16.625Z,71.30
2018-05-09T14:00:44.095Z,71.40
2018-05-09T14:03:11.544Z,72.60
2018-05-09T14:05:39.027Z,72.60
2018-05-09T14:08:06.501Z,73.10
2018-05-09T14:10:33.992Z,71.40
2018-05-09T14:13:01.456Z,71.10
2018-05-09T14:15:28.916Z,70.90
2018-05-09T14:17:56.367Z,70.40
2018-05-09T14:20:23.828Z,70.30
2018-05-09T14:22:51.280Z,69.80
2018-05-09T14:25:18.768Z,69.40
2018-05-09T14:27:46.241Z,69.80
2018-05-09T14:30:13.700Z,70.90
2018-05-09T14:32:41.170Z,71.00
2018-05-09T14:35:09.385Z,71.10
2018-05-09T14:37:36.853Z,71.10
2018-05-09T14:40:04.309Z,70.40
2018-05-09T14:42:31.796Z,72.00
2018-05-09T14:44:59.260Z,71.10
2018-05-09T14:47:26.725Z,69.00
2018-05-09T14:49:54.215Z,70.00
2018-05-09T14:52:21.688Z,69.40
2018-05-09T14:54:49.162Z,70.00
2018-05-09T14:57:16.623Z,70.30
2018-05-09T14:59:44.077Z,69.00
2018-05-09T15:02:11.529Z,68.60
2018-05-09T15:04:38.989Z,69.00
2018-05-09T15:07:06.447Z,69.20
2018-05-09T15:09:33.922Z,69.70
2018-05-09T15:12:01.372Z,68.40
2018-05-09T15:14:28.835Z,68.30
2018-05-09T15:16:56.299Z,68.80
2018-05-09T15:19:24.689Z,68.00
2018-05-09T15:21:52.928Z,68.20
2018-05-09T15:24:20.396Z,68.20
2018-05-09T15:26:47.860Z,68.40
2018-05-09T15:29:15.320Z,67.90
2018-05-09T15:31:42.792Z,69.10
2018-05-09T15:34:11.014Z,68.50
2018-05-09T15:36:39.224Z,68.10
2018-05-09T15:39:06.758Z,68.10
2018-05-09T15:41:34.171Z,68.80
2018-05-09T15:44:01.649Z,69.10
2018-05-09T15:46:29.107Z,68.00
2018-05-09T15:48:56.578Z,67.30
2018-05-09T15:51:24.049Z,68.70
2018-05-09T15:53:51.539Z,69.00
2018-05-09T15:56:19.756Z,67.50
2018-05-09T15:58:47.220Z,67.50
2018-05-09T16:01:14.736Z,67.20
2018-05-09T16:03:42.973Z,68.50
2018-05-09T16:06:10.424Z,68.40
2018-05-09T16:08:37.889Z,69.80
2018-05-09T16:11:05.352Z,70.30
2018-05-09T16:13:32.819Z,70.70
2018-05-09T16:16:00.279Z,70.30
2018-05-09T16:18:28.505Z,68.60
2018-05-09T16:20:55.988Z,68.60
2018-05-09T16:23:23.444Z,68.80
2018-05-09T16:25:50.900Z,66.80
2018-05-09T16:28:18.385Z,68.30
2018-05-09T16:30:46.612Z,69.40
2018-05-09T16:33:14.075Z,69.40
2018-05-09T16:35:41.519Z,69.10
2018-05-09T16:38:09.005Z,68.70
2018-05-09T16:40:36.451Z,69.60
2018-05-09T16:43:03.908Z,69.30
2018-05-09T16:45:31.381Z,69.80
2018-05-09T16:47:58.837Z,69.20
2018-05-09T16:50:26.308Z,68.20
2018-05-09T16:52:53.771Z,68.30
2018-05-09T16:55:21.243Z,68.40
2018-05-09T16:57:49.463Z,67.90
2018-05-09T17:00:16.949Z,67.80
2018-05-09T17:02:44.409Z,68.60
2018-05-09T17:05:11.859Z,69.80
2018-05-09T17:07:39.334Z,70.10
2018-05-09T17:10:07.558Z,70.40
2018-05-09T17:12:35.097Z,70.40
2018-05-09T17:15:03.463Z,71.10
2018-05-09T17:17:31.906Z,71.00
2018-05-09T17:19:59.371Z,71.20
2018-05-09T17:22:32.574Z,72.10
2018-05-09T17:25:00.842Z,72.10
2018-05-09T17:27:28.304Z,72.10
2018-05-09T17:30:17.260Z,72.90
2018-05-09T17:32:45.389Z,73.10
2018-05-09T17:35:12.866Z,73.10
2018-05-09T17:37:40.362Z,72.90
2018-05-09T17:40:07.855Z,72.70
2018-05-09T17:42:35.322Z,72.80
2018-05-09T17:45:02.770Z,73.20
2018-05-09T17:47:30.220Z,73.70
2018-05-09T17:49:57.692Z,73.90
2018-05-09T17:52:25.152Z,74.10
2018-05-09T17:54:52.628Z,74.20
2018-05-09T17:57:20.080Z,74.70
2018-05-09T17:59:47.709Z,74.50
2018-05-09T18:02:15.126Z,74.60
2018-05-09T18:04:42.592Z,74.50
2018-05-09T18:07:10.824Z,75.00
2018-05-09T18:09:38.600Z,75.00
2018-05-09T18:12:06.094Z,74.90
2018-05-09T18:14:33.792Z,74.90
2018-05-09T18:17:01.245Z,74.60
2018-05-09T18:19:28.689Z,74.50
2018-05-09T18:21:56.216Z,75.20
2018-05-09T18:24:23.673Z,75.30
2018-05-09T18:26:51.224Z,74.90
2018-05-09T18:29:18.640Z,74.90
2018-05-09T18:31:46.141Z,75.10
2018-05-09T18:34:14.365Z,75.60
2018-05-09T18:36:41.834Z,75.50
2018-05-09T18:39:09.293Z,75.30
2018-05-09T18:41:36.760Z,75.10
2018-05-09T18:44:04.259Z,75.60
2018-05-09T18:46:32.594Z,75.90
2018-05-09T18:49:00.088Z,75.80
2018-05-09T18:51:27.565Z,75.90
2018-05-09T18:53:55.025Z,76.20
2018-05-09T18:56:22.524Z,76.30
2018-05-09T18:58:49.991Z,76.70
2018-05-09T19:01:17.508Z,77.20
2018-05-09T19:03:45.367Z,77.50
2018-05-09T19:06:12.848Z,77.50
2018-05-09T19:08:40.305Z,78.00
2018-05-09T19:11:07.768Z,78.10
2018-05-09T19:13:35.236Z,78.50
2018-05-09T19:16:02.725Z,78.40
2018-05-09T19:18:30.326Z,78.60
2018-05-09T19:20:57.800Z,78.90
2018-05-09T19:23:25.265Z,78.90
2018-05-09T19:25:52.748Z,79.00
2018-05-09T19:28:21.024Z,79.20
2018-05-09T19:30:49.249Z,79.30
2018-05-09T19:33:16.740Z,79.20
2018-05-09T19:35:44.213Z,79.70
2018-05-09T19:38:12.429Z,79.90
2018-05-09T19:40:39.892Z,79.90
2018-05-09T19:43:07.374Z,80.00
2018-05-09T19:45:34.885Z,80.40
2018-05-09T19:48:02.413Z,80.60
2018-05-09T19:50:29.874Z,80.30
2018-05-09T19:52:58.129Z,81.00
2018-05-09T19:55:25.684Z,80.90
2018-05-09T19:57:53.064Z,81.60
2018-05-09T20:00:21.289Z,82.00
2018-05-09T20:02:48.828Z,82.00
2018-05-09T20:05:16.216Z,82.00
2018-05-09T20:07:43.716Z,82.20
2018-05-09T20:10:11.960Z,82.80
2018-05-09T20:12:39.425Z,82.80
2018-05-09T20:15:06.876Z,83.70
2018-05-09T20:17:34.326Z,84.10
2018-05-09T20:20:01.808Z,84.50
2018-05-09T20:22:29.286Z,85.10
2018-05-09T20:24:56.737Z,85.40
2018-05-09T20:27:24.961Z,86.50
2018-05-09T20:29:52.440Z,86.50
2018-05-09T20:32:31.808Z,87.30
2018-05-09T20:35:00.036Z,88.30
2018-05-09T20:37:27.501Z,88.30
2018-05-09T20:39:54.970Z,88.70
2018-05-09T20:42:22.424Z,89.20
2018-05-09T20:44:49.895Z,89.70
2018-05-09T20:47:17.358Z,90.10
2018-05-09T20:49:44.890Z,90.30
2018-05-09T20:52:12.365Z,90.50
2018-05-09T20:54:39.815Z,90.70
2018-05-09T20:57:07.284Z,90.80
2018-05-09T20:59:34.726Z,90.90
2018-05-09T21:02:02.197Z,91.10
2018-05-09T21:04:29.637Z,91.20
2018-05-09T21:06:57.140Z,91.30
2018-05-09T21:09:24.644Z,91.30
2018-05-09T21:12:03.820Z,91.40
2018-05-09T21:14:31.340Z,91.70
2018-05-09T21:16:58.759Z,91.60
2018-05-09T21:19:26.232Z,91.60
2018-05-09T21:21:53.709Z,91.70
2018-05-09T21:24:21.181Z,91.60
2018-05-09T21:26:48.649Z,92.00
2018-05-09T21:29:16.883Z,91.80
2018-05-09T21:31:44.356Z,91.70
2018-05-09T21:34:11.812Z,91.80
2018-05-09T21:36:39.292Z,91.80
2018-05-09T21:39:07.540Z,91.90
2018-05-09T21:41:35.000Z,91.90
2018-05-09T21:44:02.476Z,91.80
2018-05-09T21:46:29.924Z,91.90
2018-05-09T21:48:57.384Z,92.00
2018-05-09T21:51:24.849Z,92.00
2018-05-09T21:53:53.110Z,91.90
2018-05-09T21:56:20.578Z,91.90
2018-05-09T21:58:48.033Z,91.80
2018-05-09T22:01:16.288Z,91.80
2018-05-09T22:03:43.729Z,91.80
2018-05-09T22:06:11.200Z,91.90
2018-05-09T22:08:38.681Z,91.90
2018-05-09T22:11:07.393Z,91.90
2018-05-09T22:13:34.881Z,91.90
2018-05-09T22:16:02.347Z,92.00
2018-05-09T22:18:31.141Z,92.10
2018-05-09T22:20:58.606Z,92.20
2018-05-09T22:23:26.077Z,92.10
2018-05-09T22:25:53.547Z,92.20
2018-05-09T22:28:20.999Z,92.20
2018-05-09T22:30:48.464Z,92.30
2018-05-09T22:33:15.944Z,92.50
2018-05-09T22:35:43.395Z,92.50
2018-05-09T22:38:10.870Z,92.50
2018-05-09T22:40:38.347Z,92.60
2018-05-09T22:43:05.816Z,92.70
2018-05-09T22:45:33.272Z,92.70
2018-05-09T22:48:00.757Z,92.80
2018-05-09T22:50:28.218Z,92.80
2018-05-09T22:52:55.673Z,92.90
2018-05-09T22:55:23.907Z,93.10
2018-05-09T22:57:51.422Z,93.10
2018-05-09T23:00:18.882Z,93.10
2018-05-09T23:02:46.351Z,93.20
2018-05-09T23:05:13.804Z,93.40
2018-05-09T23:07:41.345Z,93.50
2018-05-09T23:10:08.810Z,93.60
2018-05-09T23:12:36.188Z,93.80
2018-05-09T23:15:03.652Z,93.70
2018-05-09T23:17:31.116Z,93.90
2018-05-09T23:19:59.481Z,93.80
2018-05-09T23:22:26.943Z,93.80
2018-05-09T23:24:54.432Z,93.90
2018-05-09T23:27:21.909Z,94.10
2018-05-09T23:29:49.378Z,94.00
2018-05-09T23:32:17.597Z,94.20
2018-05-09T23:34:45.110Z,94.10
2018-05-09T23:37:13.339Z,94.20
2018-05-09T23:39:40.807Z,94.20
2018-05-09T23:42:08.280Z,94.20
2018-05-09T23:44:35.735Z,94.20
2018-05-09T23:47:03.201Z,94.40
2018-05-09T23:49:30.664Z,94.50
2018-05-09T23:51:58.124Z,94.50
2018-05-09T23:54:25.589Z,94.60
2018-05-09T23:56:53.089Z,94.60
2018-05-09T23:59:20.536Z,94.80
